Time;durP1;ratioP1;P1;durP2;ratioP2;P2;SDS_P1;SDS_P2;PMS_P1;PMS_P2;Temp;Humidity;BMP_temperature;BMP_pressure;BME280_temperature;BME280_humidity;BME280_pressure;Samples;Min_cycle;Max_cycle;Signal;HPM_P1;HPM_P2
2021/09/28 00:01:38;;;;;;;0.50;0.50;;;16.20;99.90;;;;;;4997911;28;20082;-73
2021/09/28 00:04:04;;;;;;;1.45;0.30;;;16.10;99.90;;;;;;4999796;28;20023;-73
2021/09/28 00:06:29;;;;;;;1.20;0.50;;;15.90;99.90;;;;;;4993114;28;20092;-73
2021/09/28 00:08:55;;;;;;;3.03;0.35;;;15.90;99.90;;;;;;4993150;28;20026;-72
2021/09/28 00:11:21;;;;;;;0.82;0.50;;;15.90;99.90;;;;;;4993197;28;20057;-72
2021/09/28 00:13:47;;;;;;;1.02;0.40;;;15.90;99.90;;;;;;4992443;28;20066;-74
2021/09/28 00:16:13;;;;;;;0.47;0.30;;;15.80;99.90;;;;;;4991461;28;20034;-73
2021/09/28 00:18:39;;;;;;;3.75;0.30;;;15.80;99.90;;;;;;4992521;28;20026;-73
2021/09/28 00:21:05;;;;;;;1.05;0.47;;;15.60;99.90;;;;;;4992284;28;20026;-73
2021/09/28 00:23:30;;;;;;;0.40;0.40;;;15.60;99.90;;;;;;4992574;28;20031;-73
2021/09/28 00:25:56;;;;;;;0.85;0.38;;;15.60;99.90;;;;;;4991550;28;20033;-73
2021/09/28 00:28:24;;;;;;;1.50;0.45;;;15.40;99.90;;;;;;4992037;28;20077;-73
2021/09/28 00:30:50;;;;;;;0.55;0.40;;;15.20;99.90;;;;;;4992276;28;20037;-73
2021/09/28 00:33:16;;;;;;;0.47;0.40;;;15.00;99.90;;;;;;4992327;28;20026;-73
2021/09/28 00:35:42;;;;;;;1.88;0.50;;;14.90;99.90;;;;;;4991421;28;20396;-73
2021/09/28 00:38:08;;;;;;;1.20;0.40;;;14.60;99.90;;;;;;4992097;28;20022;-73
2021/09/28 00:40:34;;;;;;;0.30;0.30;;;14.40;99.90;;;;;;4991817;28;20019;-74
2021/09/28 00:42:59;;;;;;;2.25;0.70;;;14.40;99.90;;;;;;4990569;28;20030;-74
2021/09/28 00:45:25;;;;;;;2.53;0.65;;;14.40;99.90;;;;;;4991036;28;20030;-73
2021/09/28 00:47:51;;;;;;;0.70;0.43;;;14.40;99.90;;;;;;4992152;28;20765;-73
2021/09/28 00:50:18;;;;;;;0.40;0.40;;;14.50;99.90;;;;;;4991552;28;20050;-73
2021/09/28 00:52:43;;;;;;;0.68;0.57;;;14.50;99.90;;;;;;4991415;28;20030;-72
2021/09/28 00:55:09;;;;;;;2.05;0.57;;;14.80;99.90;;;;;;4991168;28;20602;-74
2021/09/28 00:57:38;;;;;;;1.92;0.55;;;14.50;99.90;;;;;;4991878;28;20023;-74
2021/09/28 01:00:04;;;;;;;0.40;0.40;;;14.40;99.90;;;;;;4991302;28;20047;-75
2021/09/28 01:02:31;;;;;;;1.25;0.68;;;14.50;99.90;;;;;;4991834;28;20073;-74
2021/09/28 01:05:02;;;;;;;0.95;0.60;;;14.40;99.90;;;;;;4990290;28;20031;-74
2021/09/28 01:07:27;;;;;;;0.75;0.75;;;14.10;99.90;;;;;;4991940;28;20026;-74
2021/09/28 01:09:53;;;;;;;0.45;0.45;;;14.10;99.90;;;;;;4991541;28;20057;-74
2021/09/28 01:12:19;;;;;;;0.68;0.50;;;14.20;99.90;;;;;;4991599;28;20452;-74
2021/09/28 01:14:44;;;;;;;1.48;0.70;;;14.10;99.90;;;;;;4990414;28;20038;-73
2021/09/28 01:17:15;;;;;;;0.63;0.60;;;14.00;99.90;;;;;;4991652;28;20424;-74
2021/09/28 01:19:41;;;;;;;1.85;0.57;;;14.10;99.90;;;;;;4991708;28;20097;-74
2021/09/28 01:22:08;;;;;;;0.60;0.47;;;14.00;99.90;;;;;;4991358;28;20477;-73
2021/09/28 01:24:34;;;;;;;0.73;0.40;;;13.90;99.90;;;;;;4990792;28;20022;-73
2021/09/28 01:27:00;;;;;;;0.50;0.45;;;13.80;99.90;;;;;;4991136;28;20369;-73
2021/09/28 01:29:26;;;;;;;0.93;0.55;;;13.80;99.90;;;;;;4991322;28;20037;-73
2021/09/28 01:31:51;;;;;;;1.88;0.50;;;13.80;99.90;;;;;;4991330;28;20027;-74
2021/09/28 01:34:19;;;;;;;2.38;0.60;;;13.80;99.90;;;;;;4990947;28;20023;-74
2021/09/28 01:36:47;;;;;;;2.20;0.50;;;13.80;99.90;;;;;;4991050;28;20022;-73
2021/09/28 01:39:14;;;;;;;1.10;0.50;;;13.80;99.90;;;;;;4989981;28;20098;-72
2021/09/28 01:41:40;;;;;;;2.40;0.40;;;13.80;99.90;;;;;;4991190;28;20023;-74
2021/09/28 01:44:11;;;;;;;1.42;0.68;;;13.90;99.90;;;;;;4991144;28;20122;-74
2021/09/28 01:46:39;;;;;;;0.52;0.40;;;14.10;99.90;;;;;;4990643;28;20033;-73
2021/09/28 01:49:05;;;;;;;1.23;0.57;;;14.30;99.90;;;;;;4991254;28;20102;-72
2021/09/28 01:51:31;;;;;;;0.50;0.50;;;14.30;99.90;;;;;;4990949;28;20523;-73
2021/09/28 01:53:57;;;;;;;3.38;0.60;;;14.20;99.90;;;;;;4991110;28;20113;-73
2021/09/28 01:56:25;;;;;;;0.50;0.40;;;14.10;99.90;;;;;;4990409;28;20044;-74
2021/09/28 01:58:51;;;;;;;1.33;0.40;;;14.10;99.90;;;;;;4990954;28;20358;-73
2021/09/28 02:01:17;;;;;;;2.10;0.40;;;14.00;99.90;;;;;;4991073;28;20046;-73
2021/09/28 02:03:43;;;;;;;1.80;0.60;;;14.10;99.90;;;;;;4991310;28;20042;-73
2021/09/28 02:06:09;;;;;;;1.05;0.70;;;14.10;99.90;;;;;;4990274;28;20026;-74
2021/09/28 02:08:34;;;;;;;2.22;0.50;;;14.20;99.90;;;;;;4989442;28;20097;-74
2021/09/28 02:11:00;;;;;;;0.70;0.50;;;14.10;99.90;;;;;;4990652;28;20049;-72
2021/09/28 02:13:26;;;;;;;1.15;0.50;;;13.90;99.90;;;;;;4990952;28;20030;-73
2021/09/28 02:15:52;;;;;;;1.17;0.50;;;13.80;99.90;;;;;;4992609;28;20065;-74
2021/09/28 02:18:17;;;;;;;0.82;0.50;;;13.80;99.90;;;;;;4993238;28;20026;-72
2021/09/28 02:20:43;;;;;;;1.23;0.68;;;13.90;99.90;;;;;;4994524;28;20018;-73
2021/09/28 02:23:09;;;;;;;2.50;0.55;;;13.90;99.90;;;;;;4994366;28;20018;-73
2021/09/28 02:25:35;;;;;;;1.50;0.63;;;14.00;99.90;;;;;;4993834;28;20477;-74
2021/09/28 02:28:00;;;;;;;1.00;0.70;;;14.20;99.90;;;;;;4994750;28;20081;-74
2021/09/28 02:30:26;;;;;;;2.42;0.93;;;14.30;99.90;;;;;;4994134;28;20111;-72
2021/09/28 02:32:52;;;;;;;1.15;0.85;;;14.30;99.90;;;;;;4994627;28;20026;-73
2021/09/28 02:35:18;;;;;;;3.00;1.00;;;14.20;99.90;;;;;;4993529;28;20511;-73
2021/09/28 02:37:43;;;;;;;6.38;1.00;;;14.20;99.90;;;;;;4994101;28;20077;-74
2021/09/28 02:40:10;;;;;;;5.07;0.93;;;14.20;99.90;;;;;;4994284;28;20030;-74
2021/09/28 02:42:36;;;;;;;2.20;0.82;;;14.20;99.90;;;;;;4994369;28;20014;-73
2021/09/28 02:45:04;;;;;;;4.63;1.50;;;14.10;99.90;;;;;;4993790;28;20515;-72
2021/09/28 02:47:30;;;;;;;4.15;1.55;;;14.10;99.90;;;;;;4994223;28;20036;-73
2021/09/28 02:49:55;;;;;;;4.53;1.45;;;14.10;99.90;;;;;;4994042;28;20026;-73
2021/09/28 02:52:22;;;;;;;2.88;1.60;;;14.00;99.90;;;;;;4995317;28;20035;-73
2021/09/28 02:54:48;;;;;;;2.47;1.38;;;14.00;99.90;;;;;;4996121;28;20029;-74
2021/09/28 02:57:13;;;;;;;1.65;1.50;;;14.00;99.90;;;;;;4995602;28;20018;-74
2021/09/28 02:59:39;;;;;;;2.85;1.30;;;14.00;99.90;;;;;;4993873;28;20022;-74
2021/09/28 03:02:05;;;;;;;3.42;1.17;;;13.90;99.90;;;;;;4994121;28;20089;-73
2021/09/28 03:04:31;;;;;;;2.00;1.08;;;13.80;99.90;;;;;;4993360;28;20481;-73
2021/09/28 03:06:56;;;;;;;4.18;0.98;;;13.70;99.90;;;;;;4993583;28;20080;-73
2021/09/28 03:09:22;;;;;;;1.63;0.77;;;13.70;99.90;;;;;;4975673;28;20482;-73
2021/09/28 03:11:47;;;;;;;2.25;1.00;;;13.60;99.90;;;;;;4974186;28;20440;-72
2021/09/28 03:14:13;;;;;;;2.20;1.00;;;13.50;99.90;;;;;;4974124;28;20041;-73
2021/09/28 03:16:39;;;;;;;1.65;0.98;;;13.50;99.90;;;;;;4972143;28;20023;-72
2021/09/28 03:19:05;;;;;;;3.53;0.80;;;13.60;99.90;;;;;;4974253;28;20066;-73
2021/09/28 03:21:30;;;;;;;1.48;1.38;;;13.60;99.90;;;;;;4973987;28;20501;-72
2021/09/28 03:23:56;;;;;;;2.28;1.30;;;13.90;99.90;;;;;;4973942;28;20112;-73
2021/09/28 03:26:22;;;;;;;4.80;1.70;;;14.00;99.90;;;;;;4972616;28;20045;-73
2021/09/28 03:28:48;;;;;;;2.22;1.45;;;14.10;99.90;;;;;;4977071;28;20158;-73
2021/09/28 03:31:13;;;;;;;3.60;1.70;;;14.00;99.90;;;;;;4983316;28;20026;-74
2021/09/28 03:33:39;;;;;;;4.82;1.92;;;14.10;99.90;;;;;;4984999;28;20046;-74
2021/09/28 03:36:05;;;;;;;2.83;1.08;;;14.10;99.90;;;;;;4983928;28;20022;-73
2021/09/28 03:38:31;;;;;;;1.55;1.27;;;13.80;99.90;;;;;;4985714;28;20019;-73
2021/09/28 03:40:57;;;;;;;2.35;1.15;;;13.70;99.90;;;;;;4986528;28;20031;-73
2021/09/28 03:43:23;;;;;;;1.83;1.30;;;13.70;99.90;;;;;;4975827;28;20033;-72
2021/09/28 03:45:48;;;;;;;3.00;1.30;;;13.70;99.90;;;;;;4972679;28;20027;-72
2021/09/28 03:48:14;;;;;;;2.58;1.75;;;13.80;99.90;;;;;;4973185;28;20026;-74
2021/09/28 03:50:40;;;;;;;2.90;1.52;;;14.00;99.90;;;;;;4971550;28;20027;-73
2021/09/28 03:53:06;;;;;;;5.55;1.55;;;13.90;99.90;;;;;;4973101;28;20041;-73
2021/09/28 03:55:32;;;;;;;2.22;1.77;;;14.00;99.90;;;;;;4972646;28;20093;-73
2021/09/28 03:58:02;;;;;;;2.10;1.80;;;14.00;99.90;;;;;;4973735;28;20520;-74
2021/09/28 04:00:30;;;;;;;1.65;1.33;;;14.00;99.90;;;;;;4973333;28;20030;-74
2021/09/28 04:02:56;;;;;;;2.90;1.40;;;13.90;99.90;;;;;;4973457;28;20029;-73
2021/09/28 04:05:22;;;;;;;4.13;1.48;;;13.80;99.90;;;;;;4972656;28;20034;-74
2021/09/28 04:07:47;;;;;;;3.85;1.40;;;13.60;99.90;;;;;;4978419;28;20033;-73
2021/09/28 04:10:13;;;;;;;1.83;1.30;;;13.50;99.90;;;;;;4992518;28;20031;-73
2021/09/28 04:12:39;;;;;;;2.40;1.40;;;13.40;99.90;;;;;;4992895;28;20034;-73
2021/09/28 04:15:06;;;;;;;2.10;1.17;;;13.40;99.90;;;;;;4991908;28;20500;-73
2021/09/28 04:17:32;;;;;;;2.67;1.45;;;13.50;99.90;;;;;;4992590;28;20026;-73
2021/09/28 04:19:58;;;;;;;2.60;1.40;;;13.50;99.90;;;;;;4992223;28;20033;-74
2021/09/28 04:22:24;;;;;;;3.25;1.70;;;13.50;99.90;;;;;;4992667;28;20381;-73
2021/09/28 04:24:51;;;;;;;3.00;2.00;;;13.70;99.90;;;;;;4991492;28;20030;-72
2021/09/28 04:27:18;;;;;;;2.10;1.90;;;13.70;99.90;;;;;;4992560;28;20022;-73
2021/09/28 04:29:43;;;;;;;5.93;2.13;;;13.60;99.90;;;;;;4991944;28;20022;-74
2021/09/28 04:32:09;;;;;;;4.35;2.22;;;13.50;99.90;;;;;;4992455;28;20029;-74
2021/09/28 04:34:36;;;;;;;3.83;2.30;;;13.40;99.90;;;;;;4989776;28;20034;-73
2021/09/28 04:37:02;;;;;;;4.03;2.10;;;13.30;99.90;;;;;;4992283;28;20039;-73
2021/09/28 04:39:27;;;;;;;3.53;2.33;;;13.30;99.90;;;;;;4990659;28;20022;-73
2021/09/28 04:41:53;;;;;;;3.80;2.38;;;13.20;99.90;;;;;;4990959;28;20025;-72
2021/09/28 04:44:19;;;;;;;2.83;2.63;;;13.10;99.90;;;;;;4991595;28;20536;-73
2021/09/28 04:46:44;;;;;;;4.15;3.03;;;13.00;99.90;;;;;;4992095;28;20030;-72
2021/09/28 04:49:10;;;;;;;4.55;3.25;;;13.00;99.90;;;;;;4992300;28;20389;-72
2021/09/28 04:51:36;;;;;;;4.75;2.88;;;12.90;99.90;;;;;;4992054;28;20034;-73
2021/09/28 04:54:02;;;;;;;6.03;3.55;;;12.80;99.90;;;;;;4991733;28;20038;-73
2021/09/28 04:56:28;;;;;;;6.47;3.15;;;12.90;99.90;;;;;;4991133;28;20026;-74
2021/09/28 04:58:53;;;;;;;3.55;2.70;;;12.80;99.90;;;;;;4992193;28;20033;-73
2021/09/28 05:01:19;;;;;;;7.63;3.05;;;12.70;99.90;;;;;;4991899;28;20049;-72
2021/09/28 05:03:45;;;;;;;3.50;2.13;;;12.70;99.90;;;;;;4991961;28;20041;-72
2021/09/28 05:06:12;;;;;;;2.50;1.85;;;12.60;99.90;;;;;;4991834;28;20106;-74
2021/09/28 05:08:39;;;;;;;4.18;1.60;;;12.60;99.90;;;;;;4991831;28;20026;-74
2021/09/28 05:11:05;;;;;;;1.90;1.80;;;12.50;99.90;;;;;;4991169;28;20031;-72
2021/09/28 05:13:31;;;;;;;5.43;2.00;;;12.70;99.90;;;;;;4979956;28;20437;-78
2021/09/28 05:15:56;;;;;;;3.10;2.40;;;12.90;99.90;;;;;;4988600;28;20133;-76
2021/09/28 05:18:22;;;;;;;2.78;2.47;;;12.90;99.90;;;;;;4992513;28;20034;-76
2021/09/28 05:20:48;;;;;;;4.57;2.83;;;12.90;99.90;;;;;;4989442;28;20069;-76
2021/09/28 05:23:14;;;;;;;3.83;2.58;;;12.90;99.90;;;;;;4991615;28;20027;-76
2021/09/28 05:25:39;;;;;;;4.00;2.60;;;12.90;99.90;;;;;;4990517;28;20050;-77
2021/09/28 05:28:05;;;;;;;2.80;2.17;;;12.90;99.90;;;;;;4990267;28;20062;-78
2021/09/28 05:30:31;;;;;;;8.73;2.38;;;12.80;99.90;;;;;;4991421;28;20026;-75
2021/09/28 05:32:56;;;;;;;2.67;2.47;;;12.80;99.90;;;;;;4992261;28;20235;-77
2021/09/28 05:35:22;;;;;;;5.72;2.60;;;12.70;99.90;;;;;;4990665;28;20389;-76
2021/09/28 05:37:48;;;;;;;3.45;2.55;;;12.80;99.90;;;;;;4989216;28;20041;-76
2021/09/28 05:40:13;;;;;;;5.97;2.92;;;12.80;99.90;;;;;;4990819;28;20026;-76
2021/09/28 05:42:39;;;;;;;5.38;3.00;;;12.80;99.90;;;;;;4991193;28;20538;-75
2021/09/28 05:45:06;;;;;;;5.78;3.20;;;12.80;99.90;;;;;;4990271;28;20022;-76
2021/09/28 05:47:31;;;;;;;4.07;3.13;;;12.90;99.90;;;;;;4989487;28;20030;-76
2021/09/28 05:49:57;;;;;;;7.43;3.53;;;13.00;99.90;;;;;;4991831;28;20137;-75
2021/09/28 05:52:23;;;;;;;4.55;3.33;;;12.90;99.90;;;;;;4995293;28;20102;-75
2021/09/28 05:54:49;;;;;;;6.07;3.65;;;12.90;99.90;;;;;;4993439;28;20030;-75
2021/09/28 05:57:22;;;;;;;5.25;3.10;;;12.90;99.90;;;;;;4995271;28;20034;-76
2021/09/28 05:59:49;;;;;;;7.35;3.50;;;12.90;99.90;;;;;;4994740;28;20584;-77
2021/09/28 06:02:15;;;;;;;5.53;3.30;;;12.80;99.90;;;;;;4994008;28;20022;-76
2021/09/28 06:04:41;;;;;;;2.65;2.45;;;12.80;99.90;;;;;;4994588;28;20042;-75
2021/09/28 06:07:07;;;;;;;6.75;2.78;;;12.80;99.90;;;;;;4993758;28;20041;-76
2021/09/28 06:09:38;;;;;;;2.55;2.35;;;12.70;99.90;;;;;;4994167;28;20026;-75
2021/09/28 06:12:05;;;;;;;2.95;2.20;;;12.70;99.90;;;;;;4994022;28;20387;-75
2021/09/28 06:14:32;;;;;;;3.90;2.42;;;12.60;99.90;;;;;;4993844;28;20065;-76
2021/09/28 06:16:58;;;;;;;8.18;3.08;;;12.60;99.90;;;;;;4994497;28;20388;-78
2021/09/28 06:19:28;;;;;;;4.70;3.10;;;12.80;99.90;;;;;;4994215;28;20027;-76
2021/09/28 06:21:55;;;;;;;6.90;3.50;;;12.90;99.90;;;;;;4993580;28;20018;-75
2021/09/28 06:24:21;;;;;;;8.20;3.40;;;12.90;99.90;;;;;;4993621;28;20046;-78
2021/09/28 06:26:47;;;;;;;9.15;4.25;;;12.90;99.90;;;;;;4991969;28;20060;-78
2021/09/28 06:29:14;;;;;;;7.15;4.63;;;12.90;99.90;;;;;;4994035;28;20025;-77
2021/09/28 06:31:41;;;;;;;6.32;3.80;;;12.90;99.90;;;;;;4994490;28;20096;-77
2021/09/28 06:34:07;;;;;;;10.02;4.13;;;12.90;99.90;;;;;;4994412;28;20089;-77
2021/09/28 06:36:33;;;;;;;7.60;3.30;;;12.90;99.90;;;;;;4993223;28;20026;-76
2021/09/28 06:38:59;;;;;;;6.30;2.83;;;12.90;99.90;;;;;;4992966;28;20465;-76
2021/09/28 06:41:27;;;;;;;9.63;2.83;;;12.80;99.90;;;;;;5003546;28;20520;-77
2021/09/28 06:43:54;;;;;;;5.20;2.13;;;12.90;99.90;;;;;;5009160;28;20022;-77
2021/09/28 06:46:20;;;;;;;2.33;1.92;;;12.90;99.90;;;;;;4992381;28;20397;-76
2021/09/28 06:48:46;;;;;;;2.80;2.15;;;12.90;99.90;;;;;;4987876;28;20105;-76
2021/09/28 06:51:12;;;;;;;6.82;2.47;;;13.00;99.90;;;;;;4974084;28;20126;-77
2021/09/28 06:53:38;;;;;;;7.47;1.90;;;12.90;99.90;;;;;;4987367;28;20062;-77
2021/09/28 06:56:04;;;;;;;2.72;1.90;;;12.80;99.90;;;;;;4988457;28;20394;-76
2021/09/28 06:58:30;;;;;;;4.05;2.03;;;12.90;99.90;;;;;;4974945;28;20050;-76
2021/09/28 07:00:55;;;;;;;5.00;2.08;;;12.80;99.90;;;;;;4974112;28;20450;-76
2021/09/28 07:03:21;;;;;;;3.67;1.63;;;12.60;99.90;;;;;;4974063;28;20037;-75
2021/09/28 07:05:48;;;;;;;3.78;1.75;;;12.60;99.90;;;;;;4990824;28;20404;-77
2021/09/28 07:08:14;;;;;;;5.95;2.25;;;12.80;99.90;;;;;;4995099;28;20405;-77
2021/09/28 07:10:41;;;;;;;6.68;1.70;;;12.80;99.90;;;;;;4993760;28;20022;-76
2021/09/28 07:13:07;;;;;;;3.80;2.00;;;12.90;99.90;;;;;;4993060;28;20030;-76
2021/09/28 07:15:33;;;;;;;5.72;2.22;;;13.00;99.90;;;;;;4993044;28;20033;-76
2021/09/28 07:17:58;;;;;;;7.22;2.20;;;13.10;99.90;;;;;;4991829;28;20026;-77
2021/09/28 07:20:24;;;;;;;3.53;2.20;;;13.10;99.90;;;;;;4980346;28;20019;-78
2021/09/28 07:22:50;;;;;;;8.60;2.60;;;13.20;99.90;;;;;;4974345;28;20023;-76
2021/09/28 07:25:16;;;;;;;8.15;2.95;;;13.50;99.90;;;;;;4972689;28;20089;-78
2021/09/28 07:27:42;;;;;;;3.25;2.13;;;13.70;99.90;;;;;;4988673;28;20027;-76
2021/09/28 07:30:08;;;;;;;9.00;2.45;;;13.70;99.90;;;;;;4973897;28;20054;-75
2021/09/28 07:32:34;;;;;;;2.75;1.88;;;13.50;99.90;;;;;;4974684;28;20027;-77
2021/09/28 07:35:03;;;;;;;4.82;2.25;;;13.40;99.90;;;;;;4973259;28;20034;-76
2021/09/28 07:37:29;;;;;;;5.13;2.17;;;13.40;99.90;;;;;;4973815;28;20034;-74
2021/09/28 07:39:59;;;;;;;5.90;2.15;;;13.40;99.90;;;;;;4972919;28;20023;-75
2021/09/28 07:42:26;;;;;;;5.95;1.90;;;13.70;99.90;;;;;;4973937;28;20070;-76
2021/09/28 07:44:56;;;;;;;5.30;2.35;;;13.70;99.90;;;;;;4973134;28;20033;-75
2021/09/28 07:47:22;;;;;;;3.17;1.60;;;13.80;99.90;;;;;;4973646;28;20018;-75
2021/09/28 07:49:47;;;;;;;3.28;1.88;;;14.00;99.90;;;;;;4974828;28;20027;-75
2021/09/28 07:52:17;;;;;;;4.93;1.42;;;13.90;99.90;;;;;;4992062;28;20073;-75
2021/09/28 07:54:42;;;;;;;8.63;1.88;;;13.70;99.90;;;;;;4993090;28;20048;-75
2021/09/28 07:57:08;;;;;;;4.30;1.52;;;13.70;99.90;;;;;;4994696;28;20469;-75
2021/09/28 07:59:35;;;;;;;3.42;1.50;;;13.80;99.90;;;;;;4993787;28;20046;-76
2021/09/28 08:02:01;;;;;;;5.85;1.60;;;14.00;99.90;;;;;;4992693;28;20025;-76
2021/09/28 08:04:26;;;;;;;5.05;1.70;;;14.40;99.90;;;;;;4992017;28;20093;-73
2021/09/28 08:06:54;;;;;;;1.65;1.20;;;14.60;99.90;;;;;;4992370;28;20035;-76
2021/09/28 08:09:21;;;;;;;4.53;1.58;;;14.60;99.90;;;;;;4972597;28;20027;-74
2021/09/28 08:11:47;;;;;;;8.60;1.50;;;14.70;99.90;;;;;;4988989;28;20026;-75
2021/09/28 08:14:13;;;;;;;2.53;1.13;;;14.80;99.90;;;;;;4992343;28;20061;-75
2021/09/28 08:16:38;;;;;;;8.10;1.63;;;14.70;99.90;;;;;;4991945;28;20480;-75
2021/09/28 08:19:06;;;;;;;5.53;1.65;;;14.60;99.90;;;;;;4992358;28;20046;-75
2021/09/28 08:21:32;;;;;;;1.98;1.20;;;14.50;99.90;;;;;;4992272;28;20893;-75
2021/09/28 08:23:58;;;;;;;3.95;1.30;;;14.60;99.90;;;;;;4992431;28;20026;-75
2021/09/28 08:29:10;;;;;;;2.28;1.00;;;14.80;99.90;;;;;;4992822;28;20122;-76
2021/09/28 08:31:44;;;;;;;7.40;1.48;;;15.00;99.90;;;;;;4991557;28;20023;-74
2021/09/28 08:34:11;;;;;;;3.75;1.38;;;15.10;99.90;;;;;;4992030;28;20096;-75
2021/09/28 08:36:37;;;;;;;9.07;1.77;;;15.00;99.90;;;;;;4990617;28;20065;-76
2021/09/28 08:39:17;;;;;;;6.40;1.52;;;15.10;99.90;;;;;;4991281;28;20101;-76
2021/09/28 08:41:45;;;;;;;3.20;1.42;;;14.90;99.90;;;;;;4990655;28;20408;-75
2021/09/28 08:44:12;;;;;;;7.22;1.33;;;15.40;99.90;;;;;;4992766;28;20401;-75
2021/09/28 08:46:38;;;;;;;4.32;0.98;;;15.80;99.90;;;;;;4992313;28;20038;-76
2021/09/28 08:49:05;;;;;;;7.10;1.73;;;16.80;99.90;;;;;;4991290;28;20125;-75
2021/09/28 08:51:32;;;;;;;5.38;1.23;;;17.20;99.90;;;;;;4991972;28;20022;-75
2021/09/28 08:53:58;;;;;;;5.90;1.00;;;17.90;99.90;;;;;;4991517;28;20026;-77
2021/09/28 08:56:24;;;;;;;3.92;1.15;;;18.00;99.90;;;;;;4989423;28;20037;-76
2021/09/28 08:59:02;;;;;;;5.40;1.17;;;18.10;99.90;;;;;;4991720;28;20014;-77
2021/09/28 09:01:31;;;;;;;4.53;0.88;;;18.40;99.90;;;;;;4990877;28;20069;-76
2021/09/28 09:04:15;;;;;;;4.25;1.17;;;18.70;99.90;;;;;;4991874;28;20026;-76
2021/09/28 09:06:41;;;;;;;5.65;1.20;;;18.70;99.90;;;;;;4991732;28;20478;-76
2021/09/28 09:09:07;;;;;;;5.93;1.42;;;20.10;99.90;;;;;;4993365;28;20033;-75
2021/09/28 09:11:38;;;;;;;3.42;0.90;;;20.50;99.90;;;;;;4991923;28;20033;-75
2021/09/28 09:14:24;;;;;;;2.25;0.90;;;20.10;99.90;;;;;;4991683;28;20128;-76
2021/09/28 09:16:55;;;;;;;5.00;1.48;;;20.10;99.90;;;;;;4971840;28;20031;-76
2021/09/28 09:19:24;;;;;;;2.40;0.90;;;20.60;99.90;;;;;;4985427;28;20018;-76
2021/09/28 09:21:57;;;;;;;3.13;1.05;;;21.50;99.90;;;;;;4988006;28;20034;-74
2021/09/28 09:24:42;;;;;;;7.47;1.63;;;21.60;99.90;;;;;;4989531;28;20034;-75
2021/09/28 09:27:16;;;;;;;3.03;1.00;;;22.60;99.90;;;;;;4990148;28;20158;-74
2021/09/28 09:29:42;;;;;;;4.43;1.27;;;22.90;99.90;;;;;;4990937;28;20043;-76
2021/09/28 09:32:10;;;;;;;3.22;1.10;;;22.60;99.90;;;;;;4991125;28;20034;-76
2021/09/28 09:34:36;;;;;;;4.38;0.85;;;22.00;99.90;;;;;;4990259;28;20030;-75
2021/09/28 09:37:05;;;;;;;4.55;0.95;;;21.90;99.90;;;;;;4978943;28;20573;-76
2021/09/28 09:39:49;;;;;;;4.28;1.23;;;23.40;99.90;;;;;;4989409;28;20109;-74
2021/09/28 09:42:15;;;;;;;2.45;0.73;;;23.20;99.90;;;;;;4986215;28;20448;-75
2021/09/28 09:44:41;;;;;;;3.65;1.08;;;22.20;99.90;;;;;;4990460;28;20047;-74
2021/09/28 09:47:23;;;;;;;2.25;1.00;;;21.50;99.90;;;;;;4991213;28;20493;-74
2021/09/28 09:49:49;;;;;;;4.60;1.10;;;21.40;99.90;;;;;;4990073;28;20019;-77
2021/09/28 09:52:15;;;;;;;5.57;1.00;;;21.90;99.90;;;;;;4991157;28;20042;-75
2021/09/28 09:54:43;;;;;;;2.80;0.95;;;21.90;99.90;;;;;;4990101;28;20050;-75
2021/09/28 09:57:11;;;;;;;3.95;0.90;;;21.30;99.90;;;;;;4991029;28;20027;-76
2021/09/28 09:59:38;;;;;;;4.45;1.10;;;21.10;99.90;;;;;;4991201;28;20029;-75
2021/09/28 10:02:05;;;;;;;4.45;1.00;;;20.80;99.90;;;;;;4991148;28;20396;-76
2021/09/28 10:04:30;;;;;;;3.00;0.98;;;20.60;99.90;;;;;;4990426;28;20030;-76
2021/09/28 10:06:56;;;;;;;3.33;1.10;;;20.90;99.90;;;;;;4991138;28;20037;-76
2021/09/28 10:09:34;;;;;;;4.07;0.98;;;21.00;99.90;;;;;;4989675;28;20528;-76
2021/09/28 10:12:04;;;;;;;3.40;1.00;;;21.20;99.90;;;;;;4991118;28;20370;-76
2021/09/28 10:14:44;;;;;;;3.55;1.00;;;20.40;99.90;;;;;;4989961;28;20041;-76
2021/09/28 10:17:29;;;;;;;3.72;0.80;;;20.00;99.90;;;;;;4986064;28;20022;-75
2021/09/28 10:19:59;;;;;;;2.95;0.82;;;19.50;99.90;;;;;;4986405;28;20452;-76
2021/09/28 10:22:38;;;;;;;3.90;1.17;;;18.80;99.90;;;;;;4970973;28;20363;-76
2021/09/28 10:25:19;;;;;;;5.07;1.10;;;18.20;99.90;;;;;;4970836;28;20030;-74
2021/09/28 10:27:56;;;;;;;4.72;0.85;;;18.00;99.90;;;;;;4972609;28;20022;-74
2021/09/28 10:33:00;;;;;;;3.75;1.10;;;18.90;99.90;;;;;;4991314;28;20400;-75
2021/09/28 10:35:27;;;;;;;5.90;1.23;;;20.60;99.90;;;;;;4989273;28;20038;-76
2021/09/28 10:37:57;;;;;;;7.95;1.27;;;22.70;99.90;;;;;;4994115;28;20022;-76
2021/09/28 10:40:24;;;;;;;3.92;1.40;;;23.30;99.10;;;;;;4994752;28;20030;-76
2021/09/28 10:43:00;;;;;;;5.53;1.52;;;23.20;97.40;;;;;;4995106;28;20453;-75
2021/09/28 10:45:29;;;;;;;5.53;1.30;;;23.20;99.10;;;;;;4993497;28;20030;-76
2021/09/28 10:47:57;;;;;;;2.75;1.80;;;22.80;99.20;;;;;;4994100;28;20030;-74
2021/09/28 10:50:29;;;;;;;3.97;1.20;;;22.30;99.90;;;;;;5009217;28;20096;-75
2021/09/28 10:52:57;;;;;;;10.60;1.90;;;22.20;99.10;;;;;;4993648;28;20027;-75
2021/09/28 10:55:25;;;;;;;5.50;1.52;;;22.00;99.90;;;;;;4993154;28;20084;-75
2021/09/28 10:57:54;;;;;;;5.68;1.40;;;21.90;99.90;;;;;;4993776;28;20404;-75
2021/09/28 11:00:24;;;;;;;6.15;1.70;;;21.60;99.90;;;;;;4993627;28;20026;-75
2021/09/28 11:02:58;;;;;;;3.53;1.50;;;21.50;99.90;;;;;;4994298;28;20384;-75
2021/09/28 11:05:40;;;;;;;4.63;1.80;;;20.40;99.90;;;;;;4993722;28;20028;-74
2021/09/28 11:08:08;;;;;;;7.83;1.70;;;20.20;99.90;;;;;;4988081;28;20061;-77
2021/09/28 11:10:38;;;;;;;6.10;1.70;;;20.10;99.90;;;;;;4974921;28;20035;-73
2021/09/28 11:13:11;;;;;;;3.70;1.67;;;20.20;99.90;;;;;;4976584;28;20034;-72
2021/09/28 11:15:38;;;;;;;5.80;1.95;;;20.40;99.90;;;;;;4974353;28;20022;-72
2021/09/28 11:18:11;;;;;;;3.47;1.85;;;20.50;99.90;;;;;;4975067;28;20050;-74
2021/09/28 11:20:38;;;;;;;5.80;1.58;;;20.40;99.90;;;;;;4976095;28;20069;-76
2021/09/28 11:23:09;;;;;;;3.72;1.42;;;20.40;99.90;;;;;;4981392;28;20041;-80
2021/09/28 11:25:36;;;;;;;4.97;1.33;;;20.40;99.90;;;;;;4980117;28;20032;-80
2021/09/28 11:28:10;;;;;;;7.20;1.50;;;20.90;99.90;;;;;;4998051;28;20030;-79
2021/09/28 11:30:39;;;;;;;2.63;1.15;;;21.50;99.60;;;;;;5004113;28;20092;-77
2021/09/28 11:33:07;;;;;;;2.75;1.15;;;22.70;97.70;;;;;;5007866;28;20026;-79
2021/09/28 11:35:34;;;;;;;5.35;1.13;;;22.90;95.70;;;;;;5003849;28;20037;-78
2021/09/28 11:38:03;;;;;;;5.55;1.67;;;22.00;96.70;;;;;;5002601;28;20488;-78
2021/09/28 11:40:36;;;;;;;4.75;1.27;;;21.80;97.50;;;;;;4999827;28;20054;-78
2021/09/28 11:43:19;;;;;;;4.57;1.10;;;22.80;96.90;;;;;;4995098;28;20045;-78
2021/09/28 11:45:46;;;;;;;4.75;1.10;;;22.80;96.50;;;;;;5007645;28;20022;-73
2021/09/28 11:48:12;;;;;;;3.75;1.40;;;23.00;95.30;;;;;;4992508;28;20030;-75
2021/09/28 11:50:38;;;;;;;4.10;1.08;;;23.30;94.90;;;;;;4993245;28;20052;-77
2021/09/28 11:53:10;;;;;;;4.13;1.20;;;23.40;95.90;;;;;;4997219;28;20092;-75
2021/09/28 11:55:36;;;;;;;5.18;1.50;;;23.80;93.60;;;;;;5000729;28;20489;-76
2021/09/28 11:58:03;;;;;;;4.60;1.88;;;23.70;93.70;;;;;;4997603;28;20050;-76
2021/09/28 12:00:29;;;;;;;2.97;1.02;;;24.20;94.60;;;;;;4992613;28;20077;-76
2021/09/28 12:03:09;;;;;;;5.13;1.42;;;24.90;93.00;;;;;;4992889;28;20387;-79
2021/09/28 12:06:03;;;;;;;1.35;0.95;;;23.90;93.00;;;;;;4992602;28;20029;-77
2021/09/28 12:08:31;;;;;;;3.45;1.10;;;23.30;94.50;;;;;;4991239;28;20450;-75
2021/09/28 12:11:02;;;;;;;2.90;1.13;;;24.80;92.70;;;;;;4983373;28;20034;-76
2021/09/28 12:13:28;;;;;;;2.55;1.15;;;26.00;92.10;;;;;;4993056;28;20048;-75
2021/09/28 12:16:22;;;;;;;4.85;1.08;;;27.10;90.50;;;;;;4992118;28;20505;-74
2021/09/28 12:19:04;;;;;;;3.58;1.00;;;27.50;85.50;;;;;;4990618;28;20560;-76
2021/09/28 12:21:29;;;;;;;;;;;26.60;84.60;;;;;;4993285;28;20073;-74
2021/09/28 12:24:18;;;;;;;3.20;1.15;;;26.40;84.90;;;;;;4992139;28;19906;-73
2021/09/28 12:26:46;;;;;;;2.53;1.05;;;27.20;83.30;;;;;;4993087;28;20061;-75
2021/09/28 12:29:21;;;;;;;4.43;1.13;;;26.20;84.90;;;;;;4992064;28;20049;-76
2021/09/28 12:31:48;;;;;;;6.18;1.10;;;26.00;86.70;;;;;;4992559;28;20030;-75
2021/09/28 12:34:13;;;;;;;5.63;1.20;;;26.80;85.40;;;;;;4992433;28;20022;-74
2021/09/28 12:36:40;;;;;;;4.30;1.35;;;27.10;82.90;;;;;;4990504;28;20033;-73
2021/09/28 12:39:26;;;;;;;2.40;0.98;;;27.00;80.10;;;;;;4991343;28;20025;-76
2021/09/28 12:42:06;;;;;;;4.95;1.05;;;26.40;80.30;;;;;;4992309;28;20018;-73
2021/09/28 12:44:33;;;;;;;5.15;1.13;;;25.70;82.90;;;;;;4991617;28;20034;-72
2021/09/28 12:47:19;;;;;;;5.63;1.23;;;26.30;83.10;;;;;;4992354;28;20033;-72
2021/09/28 12:49:44;;;;;;;5.95;1.40;;;27.40;79.60;;;;;;4990468;28;20033;-71
2021/09/28 12:52:10;;;;;;;4.90;1.40;;;27.10;80.50;;;;;;4992133;28;20075;-71
2021/09/28 12:54:35;;;;;;;3.80;1.15;;;27.30;79.20;;;;;;4991392;28;20030;-71
2021/09/28 12:57:02;;;;;;;1.98;1.00;;;26.00;80.30;;;;;;4992273;28;20121;-72